createdAt,value
2023-02-09T00:01:06.267Z,1.98
2023-02-09T00:04:15.652Z,1.90
2023-02-09T00:07:20.764Z,1.95
2023-02-09T00:10:26.045Z,1.93
2023-02-09T00:13:31.609Z,1.99
2023-02-09T00:16:36.881Z,1.98
2023-02-09T00:19:42.150Z,1.97
2023-02-09T00:22:47.297Z,1.97
2023-02-09T00:25:52.652Z,2.01
2023-02-09T00:28:59.202Z,2.01
2023-02-09T00:32:04.010Z,2.05
2023-02-09T00:35:09.513Z,1.97
2023-02-09T00:38:15.376Z,2.00
2023-02-09T00:41:40.849Z,2.09
2023-02-09T00:44:48.043Z,2.08
2023-02-09T00:47:54.887Z,2.07
2023-02-09T00:51:00.167Z,2.10
2023-02-09T00:54:05.868Z,2.22
2023-02-09T00:57:12.133Z,2.21
2023-02-09T01:00:19.777Z,2.22
2023-02-09T01:03:25.290Z,2.30
2023-02-09T01:06:31.869Z,2.20
2023-02-09T01:09:36.989Z,2.18
2023-02-09T01:12:45.022Z,2.21
2023-02-09T01:15:51.632Z,2.31
2023-02-09T01:18:59.837Z,2.30
2023-02-09T01:22:06.629Z,2.27
2023-02-09T01:25:12.221Z,2.17
2023-02-09T01:28:17.432Z,2.31
2023-02-09T01:31:26.604Z,2.25
2023-02-09T01:34:31.843Z,2.22
2023-02-09T01:37:37.490Z,2.27
2023-02-09T01:40:47.678Z,2.26
2023-02-09T01:43:55.222Z,2.38
2023-02-09T01:47:01.543Z,2.26
2023-02-09T01:50:09.986Z,2.34
2023-02-09T01:53:15.538Z,2.40
2023-02-09T01:56:27.638Z,2.44
2023-02-09T01:59:35.213Z,2.31
2023-02-09T02:02:42.210Z,2.33
2023-02-09T02:05:54.628Z,2.21
2023-02-09T02:09:02.662Z,2.27
2023-02-09T02:12:08.291Z,2.30
2023-02-09T02:15:14.218Z,2.28
2023-02-09T02:18:30.194Z,2.35
2023-02-09T02:22:08.805Z,2.33
2023-02-09T02:25:51.406Z,2.33
2023-02-09T02:29:35.995Z,2.25
2023-02-09T02:32:56.713Z,2.21
2023-02-09T02:36:09.376Z,2.21
2023-02-09T02:39:19.538Z,2.23
2023-02-09T02:42:45.916Z,2.17
2023-02-09T02:45:55.164Z,2.15
2023-02-09T02:49:05.056Z,2.11
2023-02-09T02:52:12.910Z,2.16
2023-02-09T02:55:21.353Z,2.12
2023-02-09T02:58:28.075Z,2.17
2023-02-09T03:01:35.854Z,2.33
2023-02-09T03:04:42.961Z,2.32
2023-02-09T03:07:48.239Z,2.27
2023-02-09T03:10:53.461Z,2.43
2023-02-09T03:14:13.342Z,2.28
2023-02-09T03:17:26.495Z,2.37
2023-02-09T03:20:38.252Z,2.29
2023-02-09T03:23:48.819Z,2.28
2023-02-09T03:26:56.401Z,2.43
2023-02-09T03:30:04.449Z,2.28
2023-02-09T03:33:21.120Z,2.39
2023-02-09T03:36:32.085Z,2.44
2023-02-09T03:39:37.208Z,2.45
2023-02-09T03:42:42.317Z,2.31
2023-02-09T03:45:48.009Z,2.42
2023-02-09T03:48:52.746Z,2.43
2023-02-09T03:52:00.811Z,2.34
2023-02-09T03:55:06.294Z,2.29
2023-02-09T03:58:14.601Z,2.34
2023-02-09T04:01:19.714Z,2.29
2023-02-09T04:04:25.979Z,2.36
2023-02-09T04:07:32.407Z,2.34
2023-02-09T04:10:37.877Z,2.29
2023-02-09T04:13:43.056Z,2.34
2023-02-09T04:16:48.330Z,2.26
2023-02-09T04:19:53.185Z,2.30
2023-02-09T04:22:59.866Z,2.22
2023-02-09T04:26:05.700Z,2.14
2023-02-09T04:29:10.831Z,2.26
2023-02-09T04:32:15.914Z,2.17
2023-02-09T04:35:21.152Z,2.17
2023-02-09T04:38:27.935Z,2.15
2023-02-09T04:41:32.813Z,2.15
2023-02-09T04:44:37.852Z,2.14
2023-02-09T04:47:43.206Z,2.06
2023-02-09T04:50:48.691Z,2.09
2023-02-09T04:53:55.307Z,2.04
2023-02-09T04:57:14.314Z,2.04
2023-02-09T05:00:20.190Z,2.12
2023-02-09T05:03:26.055Z,2.05
2023-02-09T05:06:31.252Z,2.06
2023-02-09T05:09:37.745Z,2.12
2023-02-09T05:12:42.719Z,2.08
2023-02-09T05:15:47.844Z,2.12
2023-02-09T05:18:53.132Z,2.16
2023-02-09T05:25:57.305Z,2.32
2023-02-09T05:29:02.500Z,2.30
2023-02-09T05:32:07.994Z,2.51
2023-02-09T05:35:13.716Z,2.47
2023-02-09T05:38:22.568Z,2.50
2023-02-09T05:41:46.892Z,2.55
2023-02-09T05:44:52.751Z,2.70
2023-02-09T05:47:57.860Z,2.65
2023-02-09T05:51:03.093Z,2.66
2023-02-09T05:54:08.191Z,2.70
2023-02-09T05:57:14.975Z,2.69
2023-02-09T06:00:20.945Z,2.72
2023-02-09T06:03:26.191Z,2.77
2023-02-09T06:06:31.438Z,2.65
2023-02-09T06:09:36.636Z,2.59
2023-02-09T06:12:43.114Z,2.73
2023-02-09T06:15:48.866Z,2.72
2023-02-09T06:18:53.994Z,2.64
2023-02-09T06:21:59.485Z,2.59
2023-02-09T06:25:04.709Z,2.60
2023-02-09T06:28:11.434Z,2.62
2023-02-09T06:31:18.104Z,2.73
2023-02-09T06:34:23.359Z,2.63
2023-02-09T06:37:29.329Z,2.68
2023-02-09T06:40:34.649Z,2.66
2023-02-09T06:43:41.149Z,2.62
2023-02-09T06:46:47.197Z,2.77
2023-02-09T06:49:52.254Z,2.71
2023-02-09T06:52:58.496Z,2.74
2023-02-09T06:56:03.790Z,2.69
2023-02-09T06:59:10.346Z,2.70
2023-02-09T07:02:15.726Z,2.73
2023-02-09T07:05:21.354Z,2.69
2023-02-09T07:08:27.182Z,2.70
2023-02-09T07:11:32.516Z,2.79
2023-02-09T07:14:38.992Z,2.75
2023-02-09T07:17:44.557Z,2.77
2023-02-09T07:20:56.371Z,2.73
2023-02-09T07:24:01.244Z,2.72
2023-02-09T07:27:06.872Z,2.68
2023-02-09T07:30:17.798Z,2.76
2023-02-09T07:33:24.144Z,2.75
2023-02-09T07:36:29.315Z,2.77
2023-02-09T07:39:34.729Z,2.75
2023-02-09T07:42:39.883Z,2.79
2023-02-09T07:45:47.847Z,2.78
2023-02-09T07:48:53.492Z,2.76
2023-02-09T07:51:58.740Z,2.79
2023-02-09T07:55:04.153Z,2.77
2023-02-09T07:58:09.095Z,2.75
2023-02-09T08:01:16.494Z,2.70
2023-02-09T08:04:22.091Z,2.73
2023-02-09T08:07:28.507Z,2.72
2023-02-09T08:10:33.389Z,2.77
2023-02-09T08:13:40.994Z,2.78
2023-02-09T08:16:47.562Z,2.78
2023-02-09T08:19:55.278Z,2.83
2023-02-09T08:23:05.838Z,2.80
2023-02-09T08:26:15.390Z,2.80
2023-02-09T08:29:20.681Z,2.77
2023-02-09T08:32:29.566Z,2.84
2023-02-09T08:35:34.662Z,2.82
2023-02-09T08:38:40.326Z,2.86
2023-02-09T08:41:46.395Z,2.88
2023-02-09T08:44:51.809Z,2.88
2023-02-09T08:47:58.397Z,2.86
2023-02-09T08:51:04.214Z,2.96
2023-02-09T08:54:09.479Z,2.96
2023-02-09T08:57:14.824Z,2.97
2023-02-09T09:00:20.658Z,3.01
2023-02-09T09:03:30.130Z,3.01
2023-02-09T09:06:35.399Z,3.07
2023-02-09T09:09:40.967Z,3.04
2023-02-09T09:12:46.232Z,3.08
2023-02-09T09:15:51.430Z,3.07
2023-02-09T09:18:58.014Z,3.09
2023-02-09T09:22:03.767Z,3.09
2023-02-09T09:25:09.077Z,3.07
2023-02-09T09:28:14.779Z,3.08
2023-02-09T09:31:20.651Z,3.04
2023-02-09T09:34:27.519Z,3.04
2023-02-09T09:37:33.111Z,3.02
2023-02-09T09:40:42.118Z,3.12
2023-02-09T09:43:47.076Z,3.13
2023-02-09T09:46:53.851Z,3.15
2023-02-09T09:50:00.378Z,3.12
2023-02-09T09:53:11.719Z,3.15
2023-02-09T09:56:21.492Z,3.06
2023-02-09T09:59:29.923Z,3.15
2023-02-09T10:02:36.544Z,3.16
2023-02-09T10:05:45.592Z,3.17
2023-02-09T10:08:55.121Z,3.19
2023-02-09T10:12:17.104Z,3.32
2023-02-09T10:15:28.781Z,3.34
2023-02-09T10:18:38.465Z,3.30
2023-02-09T10:21:44.936Z,3.29
2023-02-09T10:24:50.088Z,3.31
2023-02-09T10:27:55.413Z,3.34
2023-02-09T10:31:02.622Z,3.35
2023-02-09T10:34:13.794Z,3.39
2023-02-09T10:37:29.508Z,3.27
2023-02-09T10:40:35.710Z,3.31
2023-02-09T10:43:40.883Z,3.34
2023-02-09T10:46:47.147Z,3.38
2023-02-09T10:49:55.789Z,3.35
2023-02-09T10:53:03.757Z,3.32
2023-02-09T10:56:17.502Z,3.31
2023-02-09T10:59:24.714Z,3.33
2023-02-09T11:02:50.775Z,3.34
2023-02-09T11:06:01.821Z,3.44
2023-02-09T11:09:12.514Z,3.42
2023-02-09T11:12:20.508Z,3.47
2023-02-09T11:15:28.897Z,3.41
2023-02-09T11:18:35.611Z,3.46
2023-02-09T11:21:54.941Z,3.41
2023-02-09T11:25:06.990Z,3.37
2023-02-09T11:28:33.961Z,3.46
2023-02-09T11:31:55.788Z,3.51
2023-02-09T11:35:09.423Z,3.55
2023-02-09T11:38:18.912Z,3.55
2023-02-09T11:41:48.718Z,3.51
2023-02-09T11:44:56.858Z,3.60
2023-02-09T11:48:11.778Z,3.66
2023-02-09T11:51:19.898Z,3.58
2023-02-09T11:54:27.926Z,3.67
2023-02-09T11:57:37.744Z,3.61
2023-02-09T12:00:56.018Z,3.60
2023-02-09T12:04:18.620Z,3.67
2023-02-09T12:07:32.994Z,3.69
2023-02-09T12:10:44.264Z,3.75
2023-02-09T12:14:00.049Z,3.70
2023-02-09T12:17:12.377Z,3.76
2023-02-09T12:20:46.348Z,3.80
2023-02-09T12:23:51.675Z,3.79
2023-02-09T12:26:58.412Z,3.84
2023-02-09T12:30:10.557Z,3.86
2023-02-09T12:33:19.823Z,3.83
2023-02-09T12:36:30.970Z,3.86
2023-02-09T12:39:36.106Z,3.83
2023-02-09T12:42:42.330Z,3.88
2023-02-09T12:46:24.084Z,3.84
2023-02-09T12:49:46.145Z,3.94
2023-02-09T12:53:42.439Z,3.95
2023-02-09T12:56:47.779Z,3.90
2023-02-09T13:00:25.944Z,3.89
2023-02-09T13:03:32.770Z,3.89
2023-02-09T13:06:42.395Z,3.86
2023-02-09T13:09:49.672Z,3.85
2023-02-09T13:12:59.111Z,3.90
2023-02-09T13:16:35.795Z,3.85
2023-02-09T13:19:54.828Z,3.90
2023-02-09T13:23:10.917Z,3.92
2023-02-09T13:26:21.264Z,3.85
2023-02-09T13:29:28.231Z,3.91
2023-02-09T13:32:40.050Z,3.87
2023-02-09T13:35:56.331Z,3.92
2023-02-09T13:39:01.493Z,3.85
2023-02-09T13:42:17.216Z,3.92
2023-02-09T13:45:26.805Z,3.85
2023-02-09T13:48:34.503Z,3.85
2023-02-09T13:51:41.152Z,3.90
2023-02-09T13:54:47.012Z,3.95
2023-02-09T13:57:56.159Z,3.91
2023-02-09T14:01:03.943Z,3.92
2023-02-09T14:04:14.449Z,3.91
2023-02-09T14:07:22.941Z,3.96
2023-02-09T14:10:28.743Z,3.95
2023-02-09T14:13:36.391Z,3.94
2023-02-09T14:16:52.674Z,3.91
2023-02-09T14:19:59.933Z,3.94
2023-02-09T14:23:17.222Z,3.91
2023-02-09T14:26:26.828Z,3.94
2023-02-09T14:29:33.487Z,3.86
2023-02-09T14:32:40.430Z,3.90
2023-02-09T14:35:46.482Z,3.84
2023-02-09T14:38:53.305Z,3.83
2023-02-09T14:42:18.353Z,3.89
2023-02-09T14:45:31.268Z,3.84
2023-02-09T14:48:36.405Z,3.77
2023-02-09T14:51:41.553Z,3.72
2023-02-09T14:54:49.884Z,3.71
2023-02-09T14:57:55.106Z,3.59
2023-02-09T15:01:02.462Z,3.60
2023-02-09T15:04:07.776Z,3.50
2023-02-09T15:07:16.096Z,3.53
2023-02-09T15:10:26.862Z,3.49
2023-02-09T15:13:33.150Z,3.44
2023-02-09T15:16:38.396Z,3.27
2023-02-09T15:19:43.877Z,3.30
2023-02-09T15:22:49.244Z,3.15
2023-02-09T15:25:56.031Z,3.22
2023-02-09T15:29:01.687Z,3.12
2023-02-09T15:32:15.620Z,2.98
2023-02-09T15:35:22.733Z,2.96
2023-02-09T15:38:28.454Z,2.88
2023-02-09T15:41:52.289Z,2.98
2023-02-09T15:45:14.815Z,2.89
2023-02-09T15:48:20.323Z,2.88
2023-02-09T15:51:31.302Z,2.91
2023-02-09T15:54:36.293Z,2.97
2023-02-09T15:57:42.946Z,2.91
2023-02-09T16:00:48.344Z,2.90
2023-02-09T16:03:58.420Z,2.95
2023-02-09T16:07:08.493Z,2.80
2023-02-09T16:10:17.329Z,2.80
2023-02-09T16:13:26.717Z,2.87
2023-02-09T16:16:32.269Z,2.86
2023-02-09T16:19:37.581Z,2.77
2023-02-09T16:22:45.226Z,2.76
2023-02-09T16:25:51.305Z,2.73
2023-02-09T16:28:58.427Z,2.65
2023-02-09T16:32:03.532Z,2.93
2023-02-09T16:35:16.542Z,2.71
2023-02-09T16:38:24.444Z,2.77
2023-02-09T16:41:46.999Z,2.69
2023-02-09T16:44:54.314Z,2.75
2023-02-09T16:48:00.004Z,2.63
2023-02-09T16:51:07.420Z,2.68
2023-02-09T16:54:13.394Z,2.82
2023-02-09T16:57:23.136Z,2.93
2023-02-09T17:00:31.412Z,2.67
2023-02-09T17:03:38.077Z,2.64
2023-02-09T17:06:45.104Z,2.67
2023-02-09T17:09:50.303Z,2.79
2023-02-09T17:12:55.434Z,2.71
2023-02-09T17:16:03.846Z,2.72
2023-02-09T17:19:12.981Z,2.71
2023-02-09T17:22:18.494Z,2.60
2023-02-09T17:25:25.658Z,2.76
2023-02-09T17:28:31.330Z,2.70
2023-02-09T17:31:52.310Z,2.72
2023-02-09T17:34:58.316Z,2.89
2023-02-09T17:38:03.460Z,2.94
2023-02-09T17:41:15.308Z,2.80
2023-02-09T17:44:39.183Z,2.84
2023-02-09T17:47:48.548Z,2.76
2023-02-09T17:50:57.950Z,2.74
2023-02-09T17:54:03.646Z,2.69
2023-02-09T17:57:12.580Z,2.69
2023-02-09T18:00:18.470Z,2.66
2023-02-09T18:03:26.483Z,2.77
2023-02-09T18:06:35.560Z,2.75
2023-02-09T18:09:40.891Z,2.66
2023-02-09T18:12:46.301Z,2.58
2023-02-09T18:15:52.684Z,2.68
2023-02-09T18:18:59.730Z,2.57
2023-02-09T18:22:05.336Z,2.62
2023-02-09T18:25:17.382Z,2.77
2023-02-09T18:28:22.608Z,2.70
2023-02-09T18:31:29.798Z,2.76
2023-02-09T18:34:38.173Z,2.73
2023-02-09T18:37:44.720Z,2.71
2023-02-09T18:40:51.709Z,2.77
2023-02-09T18:43:56.994Z,2.78
2023-02-09T18:47:02.676Z,3.01
2023-02-09T18:50:10.635Z,2.93
2023-02-09T18:53:18.988Z,2.95
2023-02-09T18:56:25.916Z,2.95
2023-02-09T18:59:31.839Z,2.95
2023-02-09T19:02:37.179Z,2.93
2023-02-09T19:05:43.993Z,2.94
2023-02-09T19:08:50.501Z,2.99
2023-02-09T19:11:55.737Z,2.87
2023-02-09T19:15:01.397Z,2.91
2023-02-09T19:18:07.326Z,2.93
2023-02-09T19:21:14.178Z,3.02
2023-02-09T19:24:19.665Z,3.17
2023-02-09T19:27:26.198Z,3.02
2023-02-09T19:30:31.553Z,2.90
2023-02-09T19:33:37.111Z,2.98
2023-02-09T19:36:44.079Z,2.93
2023-02-09T19:40:00.332Z,3.00
2023-02-09T19:43:06.097Z,2.94
2023-02-09T19:46:11.972Z,3.17
2023-02-09T19:49:17.489Z,3.15
2023-02-09T19:52:24.476Z,3.06
2023-02-09T19:55:29.849Z,3.06
2023-02-09T19:58:34.956Z,2.96
2023-02-09T20:01:40.168Z,2.97
2023-02-09T20:04:46.008Z,3.00
2023-02-09T20:07:53.781Z,2.92
2023-02-09T20:10:59.205Z,2.88
2023-02-09T20:14:05.484Z,2.97
2023-02-09T20:17:11.138Z,3.03
2023-02-09T20:20:16.096Z,3.19
2023-02-09T20:23:23.920Z,3.01
2023-02-09T20:26:33.091Z,2.90
2023-02-09T20:29:38.506Z,2.98
2023-02-09T20:32:43.782Z,3.03
2023-02-09T20:35:48.857Z,2.90
2023-02-09T20:38:56.229Z,3.04
2023-02-09T20:42:19.173Z,2.90
2023-02-09T20:45:41.792Z,2.83
2023-02-09T20:48:46.945Z,2.96
2023-02-09T20:51:52.590Z,2.96
2023-02-09T20:54:59.983Z,3.02
2023-02-09T20:58:09.383Z,3.14
2023-02-09T21:01:14.732Z,3.26
2023-02-09T21:04:20.099Z,3.20
2023-02-09T21:07:25.597Z,3.19
2023-02-09T21:10:35.505Z,3.18
2023-02-09T21:13:41.254Z,3.20
2023-02-09T21:16:46.356Z,3.34
2023-02-09T21:19:51.734Z,3.39
2023-02-09T21:22:56.978Z,3.21
2023-02-09T21:26:04.477Z,3.28
2023-02-09T21:29:13.151Z,3.38
2023-02-09T21:32:19.044Z,3.29
2023-02-09T21:35:24.514Z,3.28
2023-02-09T21:38:29.650Z,3.35
2023-02-09T21:41:54.103Z,3.38
2023-02-09T21:44:59.712Z,3.46
2023-02-09T21:48:05.120Z,3.52
2023-02-09T21:51:10.203Z,3.54
2023-02-09T21:54:16.557Z,3.54
2023-02-09T21:57:23.286Z,3.39
2023-02-09T22:00:30.822Z,3.23
2023-02-09T22:03:35.857Z,3.16
2023-02-09T22:06:41.714Z,3.19
2023-02-09T22:09:47.028Z,3.19
2023-02-09T22:12:53.630Z,3.27
2023-02-09T22:15:58.914Z,3.33
2023-02-09T22:19:04.050Z,3.12
2023-02-09T22:22:09.451Z,2.99
2023-02-09T22:25:14.638Z,3.07
2023-02-09T22:28:20.972Z,3.28
2023-02-09T22:31:26.263Z,3.30
2023-02-09T22:34:31.131Z,3.39
2023-02-09T22:37:36.299Z,3.39
2023-02-09T22:40:43.509Z,3.42
2023-02-09T22:43:50.917Z,3.76
2023-02-09T22:46:56.399Z,3.49
2023-02-09T22:50:01.651Z,3.57
2023-02-09T22:53:06.846Z,3.65
2023-02-09T22:56:13.028Z,3.56
2023-02-09T22:59:19.754Z,3.58
2023-02-09T23:02:25.715Z,3.66
2023-02-09T23:05:30.786Z,3.67
2023-02-09T23:08:36.023Z,3.70
2023-02-09T23:11:41.304Z,3.72
2023-02-09T23:14:47.927Z,3.80
2023-02-09T23:17:53.161Z,3.85
2023-02-09T23:20:58.344Z,3.94
2023-02-09T23:24:03.583Z,3.98
2023-02-09T23:27:08.445Z,4.05
2023-02-09T23:30:15.910Z,4.08
2023-02-09T23:33:20.971Z,4.00
2023-02-09T23:36:27.905Z,3.92
2023-02-09T23:39:33.058Z,3.91
2023-02-09T23:42:38.389Z,3.94
2023-02-09T23:45:46.069Z,3.75
2023-02-09T23:48:54.738Z,3.76
2023-02-09T23:51:59.895Z,3.73
2023-02-09T23:55:04.740Z,3.76
2023-02-09T23:58:10.063Z,3.79
